Wetterverlauf

Letzte Wetterlage 24.07.2014 18:45
Wetterdiagramm
Tabellarische Darstellung
Datum Temperatur Windchill Feuchte Luftdruck Windrichtung Windstärke Niederschlag
24.07.2014 18:45 20,3 °C 20,3 °C 64 % 1014,4 hPa 0,00 mm
24.07.2014 09:53 19,3 °C 19,3 °C 64 % 1015,4 hPa 0,00 mm
24.07.2014 09:33 19,0 °C 19,0 °C 64 % 1015,4 hPa 0,00 mm
24.07.2014 09:12 19,4 °C 19,4 °C 64 % 1015,4 hPa 0,00 mm
24.07.2014 08:52 19,0 °C 19,0 °C 64 % 1015,4 hPa 0,00 mm
24.07.2014 08:32 18,8 °C 18,8 °C 64 % 1015,4 hPa 0,00 mm
24.07.2014 08:12 19,0 °C 19,0 °C 64 % 1015,4 hPa 0,00 mm
24.07.2014 07:51 18,2 °C 18,2 °C 66 % 1015,4 hPa 0,00 mm
24.07.2014 07:30 17,6 °C 17,6 °C 67 % 1015,4 hPa 0,00 mm
24.07.2014 07:10 17,1 °C 17,1 °C 69 % 1015,4 hPa 0,00 mm
24.07.2014 06:40 16,1 °C 16,1 °C 73 % 1015,1 hPa 0,00 mm
24.07.2014 06:19 13,7 °C 13,7 °C 82 % 1014,4 hPa 0,00 mm
24.07.2014 05:59 13,4 °C 13,4 °C 81 % 1014,4 hPa 0,00 mm
24.07.2014 05:38 13,8 °C 13,8 °C 80 % 1014,4 hPa 0,00 mm
24.07.2014 05:17 14,0 °C 14,0 °C 80 % 1014,4 hPa 0,00 mm
24.07.2014 04:56 14,0 °C 14,0 °C 80 % 1014,4 hPa 0,00 mm
24.07.2014 04:36 14,2 °C 14,2 °C 79 % 1014,4 hPa 0,00 mm
24.07.2014 04:15 14,7 °C 14,7 °C 78 % 1015,4 hPa 0,00 mm
24.07.2014 03:55 14,9 °C 14,9 °C 77 % 1015,4 hPa 0,00 mm
24.07.2014 03:34 14,8 °C 14,8 °C 77 % 1015,4 hPa 0,00 mm
24.07.2014 03:14 15,1 °C 15,1 °C 76 % 1015,4 hPa 0,00 mm
24.07.2014 02:53 15,5 °C 15,5 °C 74 % 1015,4 hPa 0,00 mm
24.07.2014 02:32 16,2 °C 16,2 °C 70 % 1015,4 hPa 0,00 mm
24.07.2014 02:12 16,8 °C 16,8 °C 69 % 1015,4 hPa 0,00 mm
24.07.2014 01:51 17,2 °C 17,2 °C 68 % 1016,4 hPa 0,00 mm
Empfehlen Sie wetter.com
| Mehr
Neue Wetterwarnung

Neue Niederschlagsmeldung
Neue Meldung
Regen Liveticker
    sehr starker Regen/Gewitter
    starker Regen/Gewitter
    mäßiger bis starker Regen
    mäßiger Regen
    leichter bis mäßiger Regen
    kein Regen